sensor_id;sensor_type;location;lat;lon;timestamp;P1;durP1;ratioP1;P2;durP2;ratioP2
9224;SDS011;4647;48.072;11.616;2023-03-30T00:01:18;10.50;;;3.37;;
9224;SDS011;4647;48.072;11.616;2023-03-30T00:03:48;8.77;;;3.00;;
9224;SDS011;4647;48.072;11.616;2023-03-30T00:06:21;9.97;;;2.90;;
9224;SDS011;4647;48.072;11.616;2023-03-30T00:08:51;12.57;;;3.40;;
9224;SDS011;4647;48.072;11.616;2023-03-30T00:11:21;9.60;;;2.77;;
9224;SDS011;4647;48.072;11.616;2023-03-30T00:13:50;9.63;;;3.03;;
9224;SDS011;4647;48.072;11.616;2023-03-30T00:16:21;11.47;;;2.97;;
9224;SDS011;4647;48.072;11.616;2023-03-30T00:18:51;12.20;;;3.37;;
9224;SDS011;4647;48.072;11.616;2023-03-30T00:21:22;13.37;;;2.93;;
9224;SDS011;4647;48.072;11.616;2023-03-30T00:23:52;11.83;;;2.87;;
9224;SDS011;4647;48.072;11.616;2023-03-30T00:26:20;12.90;;;2.97;;
9224;SDS011;4647;48.072;11.616;2023-03-30T00:28:49;14.00;;;3.03;;
9224;SDS011;4647;48.072;11.616;2023-03-30T00:31:18;9.70;;;2.67;;
9224;SDS011;4647;48.072;11.616;2023-03-30T00:33:46;12.43;;;2.93;;
9224;SDS011;4647;48.072;11.616;2023-03-30T00:36:15;13.47;;;2.87;;
9224;SDS011;4647;48.072;11.616;2023-03-30T00:38:47;14.30;;;3.00;;
9224;SDS011;4647;48.072;11.616;2023-03-30T00:41:17;12.07;;;3.00;;
9224;SDS011;4647;48.072;11.616;2023-03-30T00:43:58;10.00;;;2.80;;
9224;SDS011;4647;48.072;11.616;2023-03-30T00:46:28;11.57;;;2.70;;
9224;SDS011;4647;48.072;11.616;2023-03-30T00:48:58;9.70;;;3.00;;
9224;SDS011;4647;48.072;11.616;2023-03-30T00:51:31;10.00;;;2.80;;
9224;SDS011;4647;48.072;11.616;2023-03-30T00:54:06;11.73;;;3.03;;
9224;SDS011;4647;48.072;11.616;2023-03-30T00:56:39;8.77;;;3.00;;
9224;SDS011;4647;48.072;11.616;2023-03-30T00:59:08;13.90;;;3.90;;
9224;SDS011;4647;48.072;11.616;2023-03-30T01:01:37;8.67;;;2.57;;
9224;SDS011;4647;48.072;11.616;2023-03-30T01:04:07;14.43;;;3.10;;
9224;SDS011;4647;48.072;11.616;2023-03-30T01:06:36;7.13;;;2.67;;
9224;SDS011;4647;48.072;11.616;2023-03-30T01:09:10;13.07;;;3.00;;
9224;SDS011;4647;48.072;11.616;2023-03-30T01:11:39;9.87;;;2.60;;
9224;SDS011;4647;48.072;11.616;2023-03-30T01:14:10;10.00;;;2.67;;
9224;SDS011;4647;48.072;11.616;2023-03-30T01:16:42;10.67;;;3.27;;
9224;SDS011;4647;48.072;11.616;2023-03-30T01:19:28;8.23;;;2.80;;
9224;SDS011;4647;48.072;11.616;2023-03-30T01:22:20;9.60;;;2.93;;
9224;SDS011;4647;48.072;11.616;2023-03-30T01:25:19;10.40;;;3.23;;
9224;SDS011;4647;48.072;11.616;2023-03-30T01:28:19;11.77;;;2.90;;
9224;SDS011;4647;48.072;11.616;2023-03-30T01:31:11;12.63;;;2.70;;
9224;SDS011;4647;48.072;11.616;2023-03-30T01:34:00;9.53;;;3.30;;
9224;SDS011;4647;48.072;11.616;2023-03-30T01:36:56;9.93;;;2.77;;
9224;SDS011;4647;48.072;11.616;2023-03-30T01:39:46;8.33;;;2.90;;
9224;SDS011;4647;48.072;11.616;2023-03-30T01:42:23;13.30;;;3.10;;
9224;SDS011;4647;48.072;11.616;2023-03-30T01:45:03;11.00;;;2.90;;
9224;SDS011;4647;48.072;11.616;2023-03-30T01:47:42;12.57;;;4.10;;
9224;SDS011;4647;48.072;11.616;2023-03-30T01:50:19;19.20;;;4.63;;
9224;SDS011;4647;48.072;11.616;2023-03-30T01:52:53;11.63;;;4.63;;
9224;SDS011;4647;48.072;11.616;2023-03-30T01:55:31;8.80;;;3.00;;
9224;SDS011;4647;48.072;11.616;2023-03-30T01:58:03;7.73;;;2.70;;
9224;SDS011;4647;48.072;11.616;2023-03-30T02:00:35;11.60;;;2.97;;
9224;SDS011;4647;48.072;11.616;2023-03-30T02:03:08;9.27;;;2.57;;
9224;SDS011;4647;48.072;11.616;2023-03-30T02:05:41;11.83;;;3.20;;
9224;SDS011;4647;48.072;11.616;2023-03-30T02:08:13;8.83;;;2.87;;
9224;SDS011;4647;48.072;11.616;2023-03-30T02:10:47;8.07;;;2.50;;
9224;SDS011;4647;48.072;11.616;2023-03-30T02:13:18;14.13;;;3.30;;
9224;SDS011;4647;48.072;11.616;2023-03-30T02:15:51;10.27;;;3.03;;
9224;SDS011;4647;48.072;11.616;2023-03-30T02:18:24;10.13;;;3.20;;
9224;SDS011;4647;48.072;11.616;2023-03-30T02:20:53;14.17;;;3.07;;
9224;SDS011;4647;48.072;11.616;2023-03-30T02:23:24;14.10;;;3.43;;
9224;SDS011;4647;48.072;11.616;2023-03-30T02:26:00;10.10;;;3.20;;
9224;SDS011;4647;48.072;11.616;2023-03-30T02:28:32;13.37;;;3.40;;
9224;SDS011;4647;48.072;11.616;2023-03-30T02:31:02;10.00;;;3.63;;
9224;SDS011;4647;48.072;11.616;2023-03-30T02:33:32;12.23;;;3.20;;
9224;SDS011;4647;48.072;11.616;2023-03-30T02:36:24;11.87;;;3.13;;
9224;SDS011;4647;48.072;11.616;2023-03-30T02:39:08;10.57;;;3.27;;
9224;SDS011;4647;48.072;11.616;2023-03-30T02:45:07;11.47;;;3.23;;
9224;SDS011;4647;48.072;11.616;2023-03-30T02:47:48;11.40;;;3.50;;
9224;SDS011;4647;48.072;11.616;2023-03-30T02:50:29;16.80;;;4.30;;
9224;SDS011;4647;48.072;11.616;2023-03-30T02:53:03;11.53;;;3.80;;
9224;SDS011;4647;48.072;11.616;2023-03-30T02:55:43;17.83;;;3.90;;
9224;SDS011;4647;48.072;11.616;2023-03-30T02:58:30;13.73;;;3.80;;
9224;SDS011;4647;48.072;11.616;2023-03-30T03:01:08;12.97;;;4.03;;
9224;SDS011;4647;48.072;11.616;2023-03-30T03:03:43;20.67;;;4.20;;
9224;SDS011;4647;48.072;11.616;2023-03-30T03:06:14;17.07;;;4.17;;
9224;SDS011;4647;48.072;11.616;2023-03-30T03:08:44;16.30;;;4.93;;
9224;SDS011;4647;48.072;11.616;2023-03-30T03:11:14;18.20;;;4.30;;
9224;SDS011;4647;48.072;11.616;2023-03-30T03:13:44;15.10;;;3.97;;
9224;SDS011;4647;48.072;11.616;2023-03-30T03:16:16;13.50;;;3.97;;
9224;SDS011;4647;48.072;11.616;2023-03-30T03:18:46;13.93;;;4.50;;
9224;SDS011;4647;48.072;11.616;2023-03-30T03:21:15;14.57;;;4.00;;
9224;SDS011;4647;48.072;11.616;2023-03-30T03:23:45;17.50;;;4.87;;
9224;SDS011;4647;48.072;11.616;2023-03-30T03:26:14;14.97;;;4.67;;
9224;SDS011;4647;48.072;11.616;2023-03-30T03:28:44;18.60;;;5.07;;
9224;SDS011;4647;48.072;11.616;2023-03-30T03:31:15;21.10;;;5.33;;
9224;SDS011;4647;48.072;11.616;2023-03-30T03:33:44;15.30;;;4.73;;
9224;SDS011;4647;48.072;11.616;2023-03-30T03:36:13;19.27;;;4.47;;
9224;SDS011;4647;48.072;11.616;2023-03-30T03:38:42;22.47;;;4.43;;
9224;SDS011;4647;48.072;11.616;2023-03-30T03:41:12;16.90;;;4.63;;
9224;SDS011;4647;48.072;11.616;2023-03-30T03:43:41;20.50;;;5.20;;
9224;SDS011;4647;48.072;11.616;2023-03-30T03:46:11;17.90;;;4.67;;
9224;SDS011;4647;48.072;11.616;2023-03-30T03:48:43;14.23;;;4.23;;
9224;SDS011;4647;48.072;11.616;2023-03-30T03:51:13;21.77;;;5.17;;
9224;SDS011;4647;48.072;11.616;2023-03-30T03:53:42;17.80;;;4.60;;
9224;SDS011;4647;48.072;11.616;2023-03-30T03:56:13;17.07;;;5.00;;
9224;SDS011;4647;48.072;11.616;2023-03-30T03:58:42;14.63;;;5.07;;
9224;SDS011;4647;48.072;11.616;2023-03-30T04:01:12;20.63;;;4.40;;
9224;SDS011;4647;48.072;11.616;2023-03-30T04:03:43;21.27;;;5.17;;
9224;SDS011;4647;48.072;11.616;2023-03-30T04:06:12;18.00;;;5.00;;
9224;SDS011;4647;48.072;11.616;2023-03-30T04:08:44;16.17;;;5.13;;
9224;SDS011;4647;48.072;11.616;2023-03-30T04:11:12;14.97;;;4.83;;
9224;SDS011;4647;48.072;11.616;2023-03-30T04:13:42;14.43;;;5.87;;
9224;SDS011;4647;48.072;11.616;2023-03-30T04:16:11;15.70;;;5.10;;
9224;SDS011;4647;48.072;11.616;2023-03-30T04:18:43;23.47;;;5.17;;
9224;SDS011;4647;48.072;11.616;2023-03-30T04:21:12;20.47;;;5.03;;
9224;SDS011;4647;48.072;11.616;2023-03-30T04:23:41;19.77;;;6.13;;
9224;SDS011;4647;48.072;11.616;2023-03-30T04:26:13;17.57;;;5.43;;
9224;SDS011;4647;48.072;11.616;2023-03-30T04:28:41;20.10;;;5.60;;
9224;SDS011;4647;48.072;11.616;2023-03-30T04:31:11;17.20;;;5.03;;
9224;SDS011;4647;48.072;11.616;2023-03-30T04:33:46;19.10;;;5.23;;
9224;SDS011;4647;48.072;11.616;2023-03-30T04:36:18;19.90;;;5.90;;
9224;SDS011;4647;48.072;11.616;2023-03-30T04:38:47;20.43;;;4.97;;
9224;SDS011;4647;48.072;11.616;2023-03-30T04:41:24;18.00;;;5.97;;
9224;SDS011;4647;48.072;11.616;2023-03-30T04:43:57;21.00;;;6.03;;
9224;SDS011;4647;48.072;11.616;2023-03-30T04:46:28;22.20;;;6.20;;
9224;SDS011;4647;48.072;11.616;2023-03-30T04:49:00;20.57;;;5.83;;
9224;SDS011;4647;48.072;11.616;2023-03-30T04:51:29;19.50;;;5.20;;
9224;SDS011;4647;48.072;11.616;2023-03-30T04:53:58;19.03;;;5.73;;
9224;SDS011;4647;48.072;11.616;2023-03-30T04:56:27;19.13;;;6.07;;
9224;SDS011;4647;48.072;11.616;2023-03-30T04:58:56;21.40;;;5.70;;
9224;SDS011;4647;48.072;11.616;2023-03-30T05:01:24;23.97;;;6.33;;
9224;SDS011;4647;48.072;11.616;2023-03-30T05:03:53;17.37;;;5.93;;
9224;SDS011;4647;48.072;11.616;2023-03-30T05:06:24;15.07;;;5.90;;
9224;SDS011;4647;48.072;11.616;2023-03-30T05:08:53;20.03;;;6.20;;
9224;SDS011;4647;48.072;11.616;2023-03-30T05:11:22;20.67;;;5.57;;
9224;SDS011;4647;48.072;11.616;2023-03-30T05:13:51;21.30;;;5.23;;
9224;SDS011;4647;48.072;11.616;2023-03-30T05:16:20;20.43;;;5.57;;
9224;SDS011;4647;48.072;11.616;2023-03-30T05:18:48;15.87;;;5.90;;
9224;SDS011;4647;48.072;11.616;2023-03-30T05:21:17;19.43;;;6.70;;
9224;SDS011;4647;48.072;11.616;2023-03-30T05:23:48;18.27;;;6.10;;
9224;SDS011;4647;48.072;11.616;2023-03-30T05:26:17;17.70;;;6.20;;
9224;SDS011;4647;48.072;11.616;2023-03-30T05:28:45;22.57;;;5.50;;
9224;SDS011;4647;48.072;11.616;2023-03-30T05:31:14;19.57;;;5.37;;
9224;SDS011;4647;48.072;11.616;2023-03-30T05:33:43;22.83;;;6.70;;
9224;SDS011;4647;48.072;11.616;2023-03-30T05:36:12;20.90;;;6.50;;
9224;SDS011;4647;48.072;11.616;2023-03-30T05:38:41;15.50;;;5.53;;
9224;SDS011;4647;48.072;11.616;2023-03-30T05:41:12;18.50;;;6.30;;
9224;SDS011;4647;48.072;11.616;2023-03-30T05:43:41;19.53;;;6.60;;
9224;SDS011;4647;48.072;11.616;2023-03-30T05:46:09;20.10;;;6.40;;
9224;SDS011;4647;48.072;11.616;2023-03-30T05:48:38;23.13;;;7.90;;
9224;SDS011;4647;48.072;11.616;2023-03-30T05:51:06;17.37;;;5.93;;
9224;SDS011;4647;48.072;11.616;2023-03-30T05:53:35;17.77;;;6.43;;
9224;SDS011;4647;48.072;11.616;2023-03-30T05:56:03;19.60;;;6.87;;
9224;SDS011;4647;48.072;11.616;2023-03-30T05:58:37;19.23;;;6.87;;
9224;SDS011;4647;48.072;11.616;2023-03-30T06:01:06;19.50;;;6.70;;
9224;SDS011;4647;48.072;11.616;2023-03-30T06:03:36;21.23;;;6.30;;
9224;SDS011;4647;48.072;11.616;2023-03-30T06:06:06;17.17;;;5.90;;
9224;SDS011;4647;48.072;11.616;2023-03-30T06:08:36;17.73;;;6.37;;
9224;SDS011;4647;48.072;11.616;2023-03-30T06:11:06;22.03;;;6.70;;
9224;SDS011;4647;48.072;11.616;2023-03-30T06:13:38;18.27;;;6.63;;
9224;SDS011;4647;48.072;11.616;2023-03-30T06:16:06;21.77;;;6.33;;
9224;SDS011;4647;48.072;11.616;2023-03-30T06:18:35;18.13;;;6.03;;
9224;SDS011;4647;48.072;11.616;2023-03-30T06:21:05;20.13;;;6.40;;
9224;SDS011;4647;48.072;11.616;2023-03-30T06:23:34;19.97;;;6.17;;
9224;SDS011;4647;48.072;11.616;2023-03-30T06:26:05;19.27;;;5.90;;
9224;SDS011;4647;48.072;11.616;2023-03-30T06:28:34;18.43;;;5.90;;
9224;SDS011;4647;48.072;11.616;2023-03-30T06:31:08;21.23;;;6.20;;
9224;SDS011;4647;48.072;11.616;2023-03-30T06:33:38;21.37;;;6.60;;
9224;SDS011;4647;48.072;11.616;2023-03-30T06:36:09;19.83;;;6.47;;
9224;SDS011;4647;48.072;11.616;2023-03-30T06:38:38;22.07;;;6.60;;
9224;SDS011;4647;48.072;11.616;2023-03-30T06:41:08;26.07;;;7.10;;
9224;SDS011;4647;48.072;11.616;2023-03-30T06:43:37;28.87;;;8.10;;
9224;SDS011;4647;48.072;11.616;2023-03-30T06:46:06;24.57;;;7.47;;
9224;SDS011;4647;48.072;11.616;2023-03-30T06:48:38;20.10;;;7.03;;
9224;SDS011;4647;48.072;11.616;2023-03-30T06:51:09;23.20;;;6.47;;
9224;SDS011;4647;48.072;11.616;2023-03-30T06:53:38;17.30;;;6.13;;
9224;SDS011;4647;48.072;11.616;2023-03-30T06:56:07;21.33;;;6.47;;
9224;SDS011;4647;48.072;11.616;2023-03-30T06:58:37;16.17;;;5.80;;
9224;SDS011;4647;48.072;11.616;2023-03-30T07:01:12;20.23;;;5.63;;
9224;SDS011;4647;48.072;11.616;2023-03-30T07:03:43;16.97;;;6.23;;
9224;SDS011;4647;48.072;11.616;2023-03-30T07:06:12;19.43;;;6.00;;
9224;SDS011;4647;48.072;11.616;2023-03-30T07:08:40;20.30;;;5.60;;
9224;SDS011;4647;48.072;11.616;2023-03-30T07:11:09;17.53;;;5.40;;
9224;SDS011;4647;48.072;11.616;2023-03-30T07:13:37;20.83;;;5.53;;
9224;SDS011;4647;48.072;11.616;2023-03-30T07:16:06;19.43;;;5.13;;
9224;SDS011;4647;48.072;11.616;2023-03-30T07:18:38;19.40;;;5.10;;
9224;SDS011;4647;48.072;11.616;2023-03-30T07:21:06;16.83;;;5.10;;
9224;SDS011;4647;48.072;11.616;2023-03-30T07:23:35;11.67;;;4.97;;
9224;SDS011;4647;48.072;11.616;2023-03-30T07:26:04;14.90;;;5.20;;
9224;SDS011;4647;48.072;11.616;2023-03-30T07:28:33;14.93;;;5.30;;
9224;SDS011;4647;48.072;11.616;2023-03-30T07:31:03;13.30;;;4.93;;
9224;SDS011;4647;48.072;11.616;2023-03-30T07:33:32;13.60;;;5.40;;
9224;SDS011;4647;48.072;11.616;2023-03-30T07:36:04;17.70;;;4.97;;
9224;SDS011;4647;48.072;11.616;2023-03-30T07:38:33;17.67;;;5.20;;
9224;SDS011;4647;48.072;11.616;2023-03-30T07:41:05;14.30;;;4.80;;
9224;SDS011;4647;48.072;11.616;2023-03-30T07:43:34;19.47;;;4.77;;
9224;SDS011;4647;48.072;11.616;2023-03-30T07:46:04;16.40;;;4.90;;
9224;SDS011;4647;48.072;11.616;2023-03-30T07:48:33;14.30;;;4.20;;
9224;SDS011;4647;48.072;11.616;2023-03-30T07:51:05;17.97;;;5.23;;
9224;SDS011;4647;48.072;11.616;2023-03-30T07:53:35;12.80;;;4.97;;
9224;SDS011;4647;48.072;11.616;2023-03-30T07:56:04;15.53;;;5.00;;
9224;SDS011;4647;48.072;11.616;2023-03-30T07:58:33;17.10;;;5.17;;
9224;SDS011;4647;48.072;11.616;2023-03-30T08:01:03;16.37;;;5.60;;
9224;SDS011;4647;48.072;11.616;2023-03-30T08:03:32;16.93;;;4.80;;
9224;SDS011;4647;48.072;11.616;2023-03-30T08:06:01;16.10;;;4.93;;
9224;SDS011;4647;48.072;11.616;2023-03-30T08:08:33;15.40;;;4.83;;
9224;SDS011;4647;48.072;11.616;2023-03-30T08:11:05;18.23;;;5.50;;
9224;SDS011;4647;48.072;11.616;2023-03-30T08:13:35;18.23;;;5.23;;
9224;SDS011;4647;48.072;11.616;2023-03-30T08:16:04;13.50;;;4.80;;
9224;SDS011;4647;48.072;11.616;2023-03-30T08:18:33;15.20;;;5.60;;
9224;SDS011;4647;48.072;11.616;2023-03-30T08:21:02;12.33;;;4.80;;
9224;SDS011;4647;48.072;11.616;2023-03-30T08:23:33;15.60;;;5.27;;
9224;SDS011;4647;48.072;11.616;2023-03-30T08:26:02;13.63;;;5.03;;
9224;SDS011;4647;48.072;11.616;2023-03-30T08:28:31;14.47;;;4.40;;
9224;SDS011;4647;48.072;11.616;2023-03-30T08:31:03;12.13;;;4.43;;
9224;SDS011;4647;48.072;11.616;2023-03-30T08:33:35;13.47;;;4.77;;
9224;SDS011;4647;48.072;11.616;2023-03-30T08:36:04;16.40;;;5.13;;
9224;SDS011;4647;48.072;11.616;2023-03-30T08:38:35;18.57;;;4.70;;
9224;SDS011;4647;48.072;11.616;2023-03-30T08:41:08;13.93;;;4.53;;
9224;SDS011;4647;48.072;11.616;2023-03-30T08:44:08;14.60;;;4.87;;
9224;SDS011;4647;48.072;11.616;2023-03-30T08:46:50;15.07;;;4.97;;
9224;SDS011;4647;48.072;11.616;2023-03-30T08:49:19;13.73;;;4.70;;
9224;SDS011;4647;48.072;11.616;2023-03-30T08:51:48;15.93;;;4.77;;
9224;SDS011;4647;48.072;11.616;2023-03-30T08:54:23;15.67;;;4.77;;
9224;SDS011;4647;48.072;11.616;2023-03-30T08:56:56;16.77;;;4.83;;
9224;SDS011;4647;48.072;11.616;2023-03-30T08:59:33;17.03;;;5.47;;
9224;SDS011;4647;48.072;11.616;2023-03-30T09:02:11;15.33;;;5.07;;
9224;SDS011;4647;48.072;11.616;2023-03-30T09:04:47;18.20;;;5.23;;
9224;SDS011;4647;48.072;11.616;2023-03-30T09:07:26;13.60;;;4.47;;
9224;SDS011;4647;48.072;11.616;2023-03-30T09:09:59;13.70;;;4.20;;
9224;SDS011;4647;48.072;11.616;2023-03-30T09:12:35;16.50;;;4.67;;
9224;SDS011;4647;48.072;11.616;2023-03-30T09:15:10;16.97;;;4.50;;
9224;SDS011;4647;48.072;11.616;2023-03-30T09:17:42;13.20;;;4.47;;
9224;SDS011;4647;48.072;11.616;2023-03-30T09:20:14;14.00;;;4.80;;
9224;SDS011;4647;48.072;11.616;2023-03-30T09:22:49;12.57;;;4.40;;
9224;SDS011;4647;48.072;11.616;2023-03-30T09:25:23;15.53;;;3.97;;
9224;SDS011;4647;48.072;11.616;2023-03-30T09:27:57;10.50;;;4.00;;
9224;SDS011;4647;48.072;11.616;2023-03-30T09:30:34;10.70;;;3.60;;
9224;SDS011;4647;48.072;11.616;2023-03-30T09:33:11;13.17;;;4.17;;
9224;SDS011;4647;48.072;11.616;2023-03-30T09:35:52;12.50;;;4.47;;
9224;SDS011;4647;48.072;11.616;2023-03-30T09:38:31;13.43;;;4.67;;
9224;SDS011;4647;48.072;11.616;2023-03-30T09:41:09;13.57;;;4.00;;
9224;SDS011;4647;48.072;11.616;2023-03-30T09:43:51;12.23;;;4.30;;
9224;SDS011;4647;48.072;11.616;2023-03-30T09:46:21;12.60;;;4.53;;
9224;SDS011;4647;48.072;11.616;2023-03-30T09:48:50;11.87;;;4.20;;
9224;SDS011;4647;48.072;11.616;2023-03-30T09:51:19;13.00;;;4.53;;
9224;SDS011;4647;48.072;11.616;2023-03-30T09:53:52;12.50;;;4.37;;
9224;SDS011;4647;48.072;11.616;2023-03-30T09:56:34;16.23;;;4.17;;
9224;SDS011;4647;48.072;11.616;2023-03-30T09:59:18;13.57;;;4.30;;
9224;SDS011;4647;48.072;11.616;2023-03-30T10:01:48;24.63;;;4.53;;
9224;SDS011;4647;48.072;11.616;2023-03-30T10:04:16;16.07;;;4.70;;
9224;SDS011;4647;48.072;11.616;2023-03-30T10:06:46;17.50;;;4.17;;
9224;SDS011;4647;48.072;11.616;2023-03-30T10:09:16;17.20;;;4.40;;
9224;SDS011;4647;48.072;11.616;2023-03-30T10:11:52;12.63;;;4.03;;
9224;SDS011;4647;48.072;11.616;2023-03-30T10:14:26;15.17;;;4.23;;
9224;SDS011;4647;48.072;11.616;2023-03-30T10:16:57;15.47;;;4.93;;
9224;SDS011;4647;48.072;11.616;2023-03-30T10:19:27;17.53;;;4.90;;
9224;SDS011;4647;48.072;11.616;2023-03-30T10:21:57;20.20;;;4.97;;
9224;SDS011;4647;48.072;11.616;2023-03-30T10:24:28;13.07;;;4.33;;
9224;SDS011;4647;48.072;11.616;2023-03-30T10:27:01;21.80;;;5.03;;
9224;SDS011;4647;48.072;11.616;2023-03-30T10:29:36;18.83;;;4.50;;
9224;SDS011;4647;48.072;11.616;2023-03-30T10:32:07;20.00;;;4.87;;
9224;SDS011;4647;48.072;11.616;2023-03-30T10:34:39;20.10;;;4.23;;
9224;SDS011;4647;48.072;11.616;2023-03-30T10:37:10;20.50;;;4.77;;
9224;SDS011;4647;48.072;11.616;2023-03-30T10:39:41;17.97;;;5.20;;
9224;SDS011;4647;48.072;11.616;2023-03-30T10:42:15;22.10;;;5.13;;
9224;SDS011;4647;48.072;11.616;2023-03-30T10:44:48;17.73;;;4.40;;
9224;SDS011;4647;48.072;11.616;2023-03-30T10:47:26;17.67;;;4.87;;
9224;SDS011;4647;48.072;11.616;2023-03-30T10:50:10;22.93;;;5.57;;
9224;SDS011;4647;48.072;11.616;2023-03-30T10:52:49;14.17;;;4.63;;
9224;SDS011;4647;48.072;11.616;2023-03-30T10:55:29;22.80;;;5.33;;
9224;SDS011;4647;48.072;11.616;2023-03-30T10:58:09;18.60;;;4.53;;
9224;SDS011;4647;48.072;11.616;2023-03-30T11:00:49;27.77;;;5.30;;
9224;SDS011;4647;48.072;11.616;2023-03-30T11:03:28;20.13;;;5.27;;
9224;SDS011;4647;48.072;11.616;2023-03-30T11:05:59;14.73;;;4.40;;
9224;SDS011;4647;48.072;11.616;2023-03-30T11:08:34;17.87;;;5.07;;
9224;SDS011;4647;48.072;11.616;2023-03-30T11:11:08;19.50;;;4.63;;
9224;SDS011;4647;48.072;11.616;2023-03-30T11:13:46;18.40;;;5.33;;
9224;SDS011;4647;48.072;11.616;2023-03-30T11:16:19;19.07;;;4.60;;
9224;SDS011;4647;48.072;11.616;2023-03-30T11:18:52;16.47;;;5.10;;
9224;SDS011;4647;48.072;11.616;2023-03-30T11:21:25;15.30;;;4.83;;
9224;SDS011;4647;48.072;11.616;2023-03-30T11:23:58;14.90;;;5.17;;
9224;SDS011;4647;48.072;11.616;2023-03-30T11:26:32;17.53;;;5.30;;
9224;SDS011;4647;48.072;11.616;2023-03-30T11:29:11;16.17;;;5.03;;
9224;SDS011;4647;48.072;11.616;2023-03-30T11:31:53;15.37;;;5.03;;
9224;SDS011;4647;48.072;11.616;2023-03-30T11:34:27;14.97;;;4.43;;
9224;SDS011;4647;48.072;11.616;2023-03-30T11:37:04;11.80;;;4.13;;
9224;SDS011;4647;48.072;11.616;2023-03-30T11:39:40;18.67;;;5.20;;
9224;SDS011;4647;48.072;11.616;2023-03-30T11:42:14;8.90;;;3.70;;
9224;SDS011;4647;48.072;11.616;2023-03-30T11:44:51;12.77;;;4.60;;
9224;SDS011;4647;48.072;11.616;2023-03-30T11:47:24;20.50;;;4.87;;
9224;SDS011;4647;48.072;11.616;2023-03-30T11:50:10;14.17;;;4.20;;
9224;SDS011;4647;48.072;11.616;2023-03-30T11:52:49;9.40;;;3.93;;
9224;SDS011;4647;48.072;11.616;2023-03-30T11:55:27;9.60;;;4.17;;
9224;SDS011;4647;48.072;11.616;2023-03-30T11:58:05;11.03;;;3.80;;
9224;SDS011;4647;48.072;11.616;2023-03-30T12:00:50;8.03;;;3.90;;
9224;SDS011;4647;48.072;11.616;2023-03-30T12:03:34;10.70;;;3.80;;
9224;SDS011;4647;48.072;11.616;2023-03-30T12:06:16;9.40;;;3.80;;
9224;SDS011;4647;48.072;11.616;2023-03-30T12:08:58;15.43;;;4.20;;
9224;SDS011;4647;48.072;11.616;2023-03-30T12:11:47;9.73;;;3.57;;
9224;SDS011;4647;48.072;11.616;2023-03-30T12:14:28;7.50;;;4.30;;
9224;SDS011;4647;48.072;11.616;2023-03-30T12:17:17;13.70;;;4.07;;
9224;SDS011;4647;48.072;11.616;2023-03-30T12:20:09;8.73;;;4.30;;
9224;SDS011;4647;48.072;11.616;2023-03-30T12:22:48;9.37;;;4.80;;
9224;SDS011;4647;48.072;11.616;2023-03-30T12:25:27;8.70;;;3.60;;
9224;SDS011;4647;48.072;11.616;2023-03-30T12:28:06;9.47;;;3.63;;
9224;SDS011;4647;48.072;11.616;2023-03-30T12:30:43;9.63;;;3.70;;
9224;SDS011;4647;48.072;11.616;2023-03-30T12:33:19;10.40;;;3.80;;
9224;SDS011;4647;48.072;11.616;2023-03-30T12:35:55;7.13;;;3.63;;
9224;SDS011;4647;48.072;11.616;2023-03-30T12:38:34;9.17;;;3.37;;
9224;SDS011;4647;48.072;11.616;2023-03-30T12:41:06;8.70;;;3.40;;
9224;SDS011;4647;48.072;11.616;2023-03-30T12:43:46;6.67;;;3.37;;
9224;SDS011;4647;48.072;11.616;2023-03-30T12:46:33;7.80;;;3.63;;
9224;SDS011;4647;48.072;11.616;2023-03-30T12:49:13;8.70;;;3.50;;
9224;SDS011;4647;48.072;11.616;2023-03-30T12:51:52;8.57;;;3.63;;
9224;SDS011;4647;48.072;11.616;2023-03-30T12:54:34;10.53;;;4.13;;
9224;SDS011;4647;48.072;11.616;2023-03-30T12:57:14;8.67;;;3.47;;
9224;SDS011;4647;48.072;11.616;2023-03-30T13:00:00;9.87;;;3.47;;
9224;SDS011;4647;48.072;11.616;2023-03-30T13:03:01;6.27;;;3.10;;
9224;SDS011;4647;48.072;11.616;2023-03-30T13:05:47;7.43;;;3.00;;
9224;SDS011;4647;48.072;11.616;2023-03-30T13:08:19;5.73;;;3.23;;
9224;SDS011;4647;48.072;11.616;2023-03-30T13:11:04;6.00;;;3.07;;
9224;SDS011;4647;48.072;11.616;2023-03-30T13:13:44;6.53;;;3.30;;
9224;SDS011;4647;48.072;11.616;2023-03-30T13:19:18;5.70;;;2.73;;
9224;SDS011;4647;48.072;11.616;2023-03-30T13:21:53;5.97;;;3.30;;
9224;SDS011;4647;48.072;11.616;2023-03-30T13:24:24;5.20;;;2.83;;
9224;SDS011;4647;48.072;11.616;2023-03-30T13:29:51;5.37;;;2.50;;
9224;SDS011;4647;48.072;11.616;2023-03-30T13:32:25;6.00;;;2.93;;
9224;SDS011;4647;48.072;11.616;2023-03-30T13:35:10;5.07;;;2.63;;
9224;SDS011;4647;48.072;11.616;2023-03-30T13:38:00;4.53;;;2.73;;
9224;SDS011;4647;48.072;11.616;2023-03-30T13:40:41;6.97;;;3.10;;
9224;SDS011;4647;48.072;11.616;2023-03-30T13:43:19;5.47;;;2.40;;
9224;SDS011;4647;48.072;11.616;2023-03-30T13:45:57;6.90;;;2.63;;
9224;SDS011;4647;48.072;11.616;2023-03-30T13:48:32;4.10;;;2.30;;
9224;SDS011;4647;48.072;11.616;2023-03-30T13:51:11;6.60;;;2.70;;
9224;SDS011;4647;48.072;11.616;2023-03-30T13:53:47;6.43;;;2.57;;
9224;SDS011;4647;48.072;11.616;2023-03-30T13:56:19;8.03;;;2.77;;
9224;SDS011;4647;48.072;11.616;2023-03-30T13:58:49;7.53;;;2.73;;
9224;SDS011;4647;48.072;11.616;2023-03-30T14:01:24;7.17;;;3.27;;
9224;SDS011;4647;48.072;11.616;2023-03-30T14:03:53;7.77;;;2.90;;
9224;SDS011;4647;48.072;11.616;2023-03-30T14:06:23;6.70;;;2.77;;
9224;SDS011;4647;48.072;11.616;2023-03-30T14:09:08;4.63;;;2.40;;
9224;SDS011;4647;48.072;11.616;2023-03-30T14:11:39;6.00;;;2.80;;
9224;SDS011;4647;48.072;11.616;2023-03-30T14:14:14;7.80;;;2.73;;
9224;SDS011;4647;48.072;11.616;2023-03-30T14:16:46;5.70;;;2.90;;
9224;SDS011;4647;48.072;11.616;2023-03-30T14:19:18;5.77;;;2.77;;
9224;SDS011;4647;48.072;11.616;2023-03-30T14:21:53;5.83;;;2.83;;
9224;SDS011;4647;48.072;11.616;2023-03-30T14:24:30;5.57;;;3.10;;
9224;SDS011;4647;48.072;11.616;2023-03-30T14:27:01;7.87;;;2.90;;
9224;SDS011;4647;48.072;11.616;2023-03-30T14:29:32;8.70;;;3.40;;
9224;SDS011;4647;48.072;11.616;2023-03-30T14:32:02;6.60;;;3.40;;
9224;SDS011;4647;48.072;11.616;2023-03-30T14:34:31;8.57;;;3.50;;
9224;SDS011;4647;48.072;11.616;2023-03-30T14:37:01;9.43;;;3.33;;
9224;SDS011;4647;48.072;11.616;2023-03-30T14:39:36;9.50;;;4.00;;
9224;SDS011;4647;48.072;11.616;2023-03-30T14:42:08;6.80;;;3.67;;
9224;SDS011;4647;48.072;11.616;2023-03-30T14:44:43;11.17;;;4.43;;
9224;SDS011;4647;48.072;11.616;2023-03-30T14:47:13;9.10;;;3.97;;
9224;SDS011;4647;48.072;11.616;2023-03-30T14:49:42;9.77;;;4.00;;
9224;SDS011;4647;48.072;11.616;2023-03-30T14:52:14;6.43;;;3.60;;
9224;SDS011;4647;48.072;11.616;2023-03-30T14:54:49;8.37;;;3.97;;
9224;SDS011;4647;48.072;11.616;2023-03-30T14:57:20;9.20;;;4.40;;
9224;SDS011;4647;48.072;11.616;2023-03-30T14:59:51;7.97;;;3.67;;
9224;SDS011;4647;48.072;11.616;2023-03-30T15:02:23;10.00;;;3.70;;
9224;SDS011;4647;48.072;11.616;2023-03-30T15:04:55;6.20;;;3.60;;
9224;SDS011;4647;48.072;11.616;2023-03-30T15:07:27;8.97;;;3.60;;
9224;SDS011;4647;48.072;11.616;2023-03-30T15:09:59;12.00;;;4.43;;
9224;SDS011;4647;48.072;11.616;2023-03-30T15:12:28;6.93;;;3.97;;
9224;SDS011;4647;48.072;11.616;2023-03-30T15:15:01;10.20;;;4.43;;
9224;SDS011;4647;48.072;11.616;2023-03-30T15:17:32;11.70;;;4.17;;
9224;SDS011;4647;48.072;11.616;2023-03-30T15:20:03;10.00;;;4.27;;
9224;SDS011;4647;48.072;11.616;2023-03-30T15:22:34;8.87;;;4.63;;
9224;SDS011;4647;48.072;11.616;2023-03-30T15:25:11;8.77;;;4.20;;
9224;SDS011;4647;48.072;11.616;2023-03-30T15:27:41;12.53;;;5.13;;
9224;SDS011;4647;48.072;11.616;2023-03-30T15:30:14;9.13;;;4.90;;
9224;SDS011;4647;48.072;11.616;2023-03-30T15:32:52;9.40;;;4.60;;
9224;SDS011;4647;48.072;11.616;2023-03-30T15:35:22;7.20;;;4.30;;
9224;SDS011;4647;48.072;11.616;2023-03-30T15:37:53;8.47;;;3.90;;